Aérodrome de Castelnaudary-Villeneuve

LFMW

May 21, 2022

Time Code Weather Temp. Visibility Clouds Wind METAR/SPECI
5:30 pm
V
91 °F 6¼ mi+ - 200°   200° 11 kt METAR LESU 211530Z 20011KT 170V230 9999 FEW090CB 33/03 Q1020
5:00 pm
V
93 °F 6¼ mi+ - 200°   200° 11 kt METAR LESU 211500Z 20011KT 170V250 9999 FEW090TCU 34/04 Q1020
4:30 pm
V
93 °F 6¼ mi+ - 190°   190° 11 kt METAR LESU 211430Z 19011KT 160V220 9999 FEW090TCU 34/04 Q1021
4:00 pm
V
93 °F 6¼ mi+ - 200°   200° 10 kt METAR LESU 211400Z 20010KT 170V280 CAVOK 34/03 Q1021
3:30 pm
V
93 °F 6¼ mi+ - 210°   210° 10 kt METAR LESU 211330Z 21010KT 180V250 CAVOK 34/02 Q1021
3:00 pm
V
93 °F 6¼ mi+ - 200°   200° 10 kt METAR LESU 211300Z 20010KT 140V300 CAVOK 34/02 Q1022
2:30 pm
V
91 °F 6¼ mi+ - 190°   190° 13 kt METAR LESU 211230Z 19013KT 140V230 CAVOK 33/02 Q1022
2:00 pm
V
90 °F 6¼ mi+ - 190°   190° 12 kt METAR LESU 211200Z 19012KT 160V230 CAVOK 32/01 Q1022
1:30 pm
V
91 °F 6¼ mi+ - 210°   210° 9 kt METAR LESU 211130Z 21009KT 180V260 CAVOK 33/04 Q1023
1:00 pm
V
86 °F 6¼ mi+ - 200°   200° 4 kt METAR LESU 211100Z 20004KT 140V270 CAVOK 30/05 Q1023
12:30 pm
V
82 °F 6¼ mi+ - Var   Var 2 kt METAR LESU 211030Z VRB02KT CAVOK 28/06 Q1024
12:00 pm
V
79 °F 6¼ mi+ - Var   Var 2 kt METAR LESU 211000Z VRB02KT CAVOK 26/07 Q1024
11:30 am
V
77 °F 6¼ mi+ - Var   Var 1 kt METAR LESU 210930Z VRB01KT CAVOK 25/08 Q1025
11:00 am
V
73 °F 6¼ mi+ - 120°   120° 3 kt METAR LESU 210900Z 12003KT 030V180 CAVOK 23/06 Q1025
10:30 am
V
70 °F 6¼ mi+ - Var   Var 2 kt METAR LESU 210830Z VRB02KT CAVOK 21/07 Q1026
10:00 am
V
68 °F 6¼ mi+ - Var   Var 2 kt METAR LESU 210800Z VRB02KT CAVOK 20/07 Q1026

May 20, 2022

Time Code Weather Temp. Visibility Clouds Wind METAR/SPECI
7:30 pm
V
84 °F 6¼ mi+ - 210°   210° 8 kt METAR LESU 201730Z 21008KT 180V280 CAVOK 29/07 Q1025
7:00 pm
V
86 °F 6¼ mi+ - 210°   210° 9 kt METAR LESU 201700Z 21009KT 150V270 CAVOK 30/05 Q1025
6:30 pm
V
86 °F 6¼ mi+ - 200°   200° 11 kt METAR LESU 201630Z 20011KT 170V230 CAVOK 30/05 Q1025
6:00 pm
V
84 °F 6¼ mi+ - 200°   200° 11 kt METAR LESU 201600Z 20011KT CAVOK 29/04 Q1025
5:30 pm
V
84 °F 6¼ mi+ - 200°   200° 14 kt METAR LESU 201530Z 20014KT CAVOK 29/04 Q1026
5:00 pm
V
86 °F 6¼ mi+ - 210°   210° 12 kt METAR LESU 201500Z 21012KT 150V260 CAVOK 30/05 Q1025
4:30 pm
V
88 °F 6¼ mi+ - 210°   210° 13 kt METAR LESU 201430Z 21013KT 180V240 CAVOK 31/05 Q1026
4:00 pm
V
88 °F 6¼ mi+ - 200°   200° 13 kt METAR LESU 201400Z 20013KT CAVOK 31/05 Q1026
3:30 pm
V
88 °F 6¼ mi+ - 210°   210° 13 23 kt METAR LESU 201330Z 21013G23KT 170V250 CAVOK 31/05 Q1026
3:00 pm
V
88 °F 6¼ mi+ - 200°   200° 11 kt METAR LESU 201300Z 20011KT 180V240 CAVOK 31/05 Q1026
2:30 pm
V
88 °F 6¼ mi+ - 190°   190° 12 kt METAR LESU 201230Z 19012KT 160V240 CAVOK 31/04 Q1026
2:00 pm
V
88 °F 6¼ mi+ - Var   Var 9 kt METAR LESU 201200Z VRB09KT CAVOK 31/05 Q1027
1:30 pm
V
84 °F 6¼ mi+ - Var   Var 4 kt METAR LESU 201130Z VRB04KT CAVOK 29/04 Q1027
1:00 pm
V
82 °F 6¼ mi+ - Var   Var 2 kt METAR LESU 201100Z VRB02KT CAVOK 28/04 Q1028
12:30 pm
V
79 °F 6¼ mi+ - 270°   270° 3 kt METAR LESU 201030Z 27003KT 200V310 CAVOK 26/04 Q1028
12:00 pm
V
79 °F 6¼ mi+ - Var   Var 3 kt METAR LESU 201000Z VRB03KT CAVOK 26/08 Q1028
11:30 am
V
75 °F 6¼ mi+ - Var   Var 2 kt METAR LESU 200930Z VRB02KT CAVOK 24/10 Q1029
11:00 am
V
73 °F 6¼ mi+ - Var   Var 2 kt METAR LESU 200900Z VRB02KT CAVOK 23/11 Q1029
10:30 am
V
70 °F 6¼ mi+ - Var   Var 1 kt METAR LESU 200830Z VRB01KT CAVOK 21/11 Q1029
10:00 am
V
66 °F 6¼ mi+ - Var   Var 2 kt METAR LESU 200800Z VRB02KT CAVOK 19/11 Q1029
Older data

Download our app

Easy access to all aviation weather on your mobile phone and tablet.
With many features not available on the website, like offline support and a personal airport list.

We and third parties follow your internet behavior on our website with cookies. If you continue, we assume you agree with our cookie policy. Learn more